sensor_id;sensor_type;location;lat;lon;timestamp;temperature;humidity
8910;DHT22;4490;49.072;8.804;2023-12-20T00:00:38;7.40;99.90
8910;DHT22;4490;49.072;8.804;2023-12-20T00:03:03;7.40;99.90
8910;DHT22;4490;49.072;8.804;2023-12-20T00:05:30;7.40;99.90
8910;DHT22;4490;49.072;8.804;2023-12-20T00:07:57;7.30;99.90
8910;DHT22;4490;49.072;8.804;2023-12-20T00:10:23;7.30;99.90
8910;DHT22;4490;49.072;8.804;2023-12-20T00:12:48;7.30;99.90
8910;DHT22;4490;49.072;8.804;2023-12-20T00:15:14;7.30;99.90
8910;DHT22;4490;49.072;8.804;2023-12-20T00:17:39;7.30;99.90
8910;DHT22;4490;49.072;8.804;2023-12-20T00:20:06;7.20;99.90
8910;DHT22;4490;49.072;8.804;2023-12-20T00:22:31;7.20;99.90
8910;DHT22;4490;49.072;8.804;2023-12-20T00:24:57;7.20;99.90
8910;DHT22;4490;49.072;8.804;2023-12-20T00:27:23;7.10;99.90
8910;DHT22;4490;49.072;8.804;2023-12-20T00:29:48;7.10;99.90
8910;DHT22;4490;49.072;8.804;2023-12-20T00:32:16;7.00;99.90
8910;DHT22;4490;49.072;8.804;2023-12-20T00:34:42;7.00;99.90
8910;DHT22;4490;49.072;8.804;2023-12-20T00:37:08;7.00;99.90
8910;DHT22;4490;49.072;8.804;2023-12-20T00:39:33;7.00;99.90
8910;DHT22;4490;49.072;8.804;2023-12-20T00:41:59;6.90;99.90
8910;DHT22;4490;49.072;8.804;2023-12-20T00:44:24;6.90;99.90
8910;DHT22;4490;49.072;8.804;2023-12-20T00:46:50;6.90;99.90
8910;DHT22;4490;49.072;8.804;2023-12-20T00:49:15;6.90;99.90
8910;DHT22;4490;49.072;8.804;2023-12-20T00:51:41;6.90;99.90
8910;DHT22;4490;49.072;8.804;2023-12-20T00:54:06;6.90;99.90
8910;DHT22;4490;49.072;8.804;2023-12-20T00:56:32;6.90;99.90
8910;DHT22;4490;49.072;8.804;2023-12-20T00:58:58;6.90;99.90
8910;DHT22;4490;49.072;8.804;2023-12-20T01:01:23;6.90;99.90
8910;DHT22;4490;49.072;8.804;2023-12-20T01:03:49;6.80;99.90
8910;DHT22;4490;49.072;8.804;2023-12-20T01:06:16;6.80;99.90
8910;DHT22;4490;49.072;8.804;2023-12-20T01:08:42;6.80;99.90
8910;DHT22;4490;49.072;8.804;2023-12-20T01:11:07;6.70;99.90
8910;DHT22;4490;49.072;8.804;2023-12-20T01:13:33;6.80;99.90
8910;DHT22;4490;49.072;8.804;2023-12-20T01:15:59;6.80;99.90
8910;DHT22;4490;49.072;8.804;2023-12-20T01:18:24;6.70;99.90
8910;DHT22;4490;49.072;8.804;2023-12-20T01:20:50;6.70;99.90
8910;DHT22;4490;49.072;8.804;2023-12-20T01:23:16;6.70;99.90
8910;DHT22;4490;49.072;8.804;2023-12-20T01:25:41;6.70;99.90
8910;DHT22;4490;49.072;8.804;2023-12-20T01:28:07;6.70;99.90
8910;DHT22;4490;49.072;8.804;2023-12-20T01:30:32;6.70;99.90
8910;DHT22;4490;49.072;8.804;2023-12-20T01:33:00;6.70;99.90
8910;DHT22;4490;49.072;8.804;2023-12-20T01:35:26;6.70;99.90
8910;DHT22;4490;49.072;8.804;2023-12-20T01:37:51;6.70;99.90
8910;DHT22;4490;49.072;8.804;2023-12-20T01:40:17;6.70;99.90
8910;DHT22;4490;49.072;8.804;2023-12-20T01:42:43;6.70;99.90
8910;DHT22;4490;49.072;8.804;2023-12-20T01:45:09;6.70;99.90
8910;DHT22;4490;49.072;8.804;2023-12-20T01:47:36;6.70;99.90
8910;DHT22;4490;49.072;8.804;2023-12-20T01:50:02;6.80;99.90
8910;DHT22;4490;49.072;8.804;2023-12-20T01:52:29;6.80;99.90
8910;DHT22;4490;49.072;8.804;2023-12-20T01:54:55;6.80;99.90
8910;DHT22;4490;49.072;8.804;2023-12-20T01:57:28;6.80;99.90
8910;DHT22;4490;49.072;8.804;2023-12-20T01:59:53;6.80;99.90
8910;DHT22;4490;49.072;8.804;2023-12-20T02:02:20;6.80;99.90
8910;DHT22;4490;49.072;8.804;2023-12-20T02:04:45;6.80;99.90
8910;DHT22;4490;49.072;8.804;2023-12-20T02:07:13;6.80;99.90
8910;DHT22;4490;49.072;8.804;2023-12-20T02:09:39;6.80;99.90
8910;DHT22;4490;49.072;8.804;2023-12-20T02:12:05;6.70;99.90
8910;DHT22;4490;49.072;8.804;2023-12-20T02:14:31;6.70;99.90
8910;DHT22;4490;49.072;8.804;2023-12-20T02:16:56;6.70;99.90
8910;DHT22;4490;49.072;8.804;2023-12-20T02:19:22;6.80;99.90
8910;DHT22;4490;49.072;8.804;2023-12-20T02:21:48;6.80;99.90
8910;DHT22;4490;49.072;8.804;2023-12-20T02:24:13;6.80;99.90
8910;DHT22;4490;49.072;8.804;2023-12-20T02:26:39;6.80;99.90
8910;DHT22;4490;49.072;8.804;2023-12-20T02:29:05;6.80;99.90
8910;DHT22;4490;49.072;8.804;2023-12-20T02:31:30;6.80;99.90
8910;DHT22;4490;49.072;8.804;2023-12-20T02:33:56;6.80;99.90
8910;DHT22;4490;49.072;8.804;2023-12-20T02:36:21;6.80;99.90
8910;DHT22;4490;49.072;8.804;2023-12-20T02:38:47;6.80;99.90
8910;DHT22;4490;49.072;8.804;2023-12-20T02:41:13;6.80;99.90
8910;DHT22;4490;49.072;8.804;2023-12-20T02:43:41;6.80;99.90
8910;DHT22;4490;49.072;8.804;2023-12-20T02:46:06;6.80;99.90
8910;DHT22;4490;49.072;8.804;2023-12-20T02:48:32;6.80;99.90
8910;DHT22;4490;49.072;8.804;2023-12-20T02:50:57;6.80;99.90
8910;DHT22;4490;49.072;8.804;2023-12-20T02:53:23;6.80;99.90
8910;DHT22;4490;49.072;8.804;2023-12-20T02:55:49;6.90;99.90
8910;DHT22;4490;49.072;8.804;2023-12-20T02:58:14;6.90;99.90
8910;DHT22;4490;49.072;8.804;2023-12-20T03:00:40;6.90;99.90
8910;DHT22;4490;49.072;8.804;2023-12-20T03:03:05;6.90;99.90
8910;DHT22;4490;49.072;8.804;2023-12-20T03:05:31;6.90;99.90
8910;DHT22;4490;49.072;8.804;2023-12-20T03:07:56;6.90;99.90
8910;DHT22;4490;49.072;8.804;2023-12-20T03:10:22;6.90;99.90
8910;DHT22;4490;49.072;8.804;2023-12-20T03:12:47;6.80;99.90
8910;DHT22;4490;49.072;8.804;2023-12-20T03:15:13;6.80;99.90
8910;DHT22;4490;49.072;8.804;2023-12-20T03:17:39;6.80;99.90
8910;DHT22;4490;49.072;8.804;2023-12-20T03:20:05;6.80;99.90
8910;DHT22;4490;49.072;8.804;2023-12-20T03:22:30;6.80;99.90
8910;DHT22;4490;49.072;8.804;2023-12-20T03:24:56;6.70;99.90
8910;DHT22;4490;49.072;8.804;2023-12-20T03:27:21;6.70;99.90
8910;DHT22;4490;49.072;8.804;2023-12-20T03:29:47;6.70;99.90
8910;DHT22;4490;49.072;8.804;2023-12-20T03:32:13;6.80;99.90
8910;DHT22;4490;49.072;8.804;2023-12-20T03:34:38;6.80;99.90
8910;DHT22;4490;49.072;8.804;2023-12-20T03:37:04;6.80;99.90
8910;DHT22;4490;49.072;8.804;2023-12-20T03:39:29;6.80;99.90
8910;DHT22;4490;49.072;8.804;2023-12-20T03:41:55;6.70;99.90
8910;DHT22;4490;49.072;8.804;2023-12-20T03:44:20;6.70;99.90
8910;DHT22;4490;49.072;8.804;2023-12-20T03:46:46;6.70;99.90
8910;DHT22;4490;49.072;8.804;2023-12-20T03:49:12;6.70;99.90
8910;DHT22;4490;49.072;8.804;2023-12-20T03:51:38;6.70;99.90
8910;DHT22;4490;49.072;8.804;2023-12-20T03:54:04;6.70;99.90
8910;DHT22;4490;49.072;8.804;2023-12-20T03:56:29;6.70;99.90
8910;DHT22;4490;49.072;8.804;2023-12-20T03:58:55;6.70;99.90
8910;DHT22;4490;49.072;8.804;2023-12-20T04:01:20;6.70;99.90
8910;DHT22;4490;49.072;8.804;2023-12-20T04:03:46;6.70;99.90
8910;DHT22;4490;49.072;8.804;2023-12-20T04:06:19;6.70;99.90
8910;DHT22;4490;49.072;8.804;2023-12-20T04:08:44;6.70;99.90
8910;DHT22;4490;49.072;8.804;2023-12-20T04:11:10;6.70;99.90
8910;DHT22;4490;49.072;8.804;2023-12-20T04:13:36;6.70;99.90
8910;DHT22;4490;49.072;8.804;2023-12-20T04:16:01;6.70;99.90
8910;DHT22;4490;49.072;8.804;2023-12-20T04:18:27;6.70;99.90
8910;DHT22;4490;49.072;8.804;2023-12-20T04:20:53;6.70;99.90
8910;DHT22;4490;49.072;8.804;2023-12-20T04:23:19;6.70;99.90
8910;DHT22;4490;49.072;8.804;2023-12-20T04:25:44;6.70;99.90
8910;DHT22;4490;49.072;8.804;2023-12-20T04:28:10;6.70;99.90
8910;DHT22;4490;49.072;8.804;2023-12-20T04:30:36;6.70;99.90
8910;DHT22;4490;49.072;8.804;2023-12-20T04:33:01;6.70;99.90
8910;DHT22;4490;49.072;8.804;2023-12-20T04:35:27;6.70;99.90
8910;DHT22;4490;49.072;8.804;2023-12-20T04:37:53;6.70;99.90
8910;DHT22;4490;49.072;8.804;2023-12-20T04:40:18;6.70;99.90
8910;DHT22;4490;49.072;8.804;2023-12-20T04:42:44;6.70;99.90
8910;DHT22;4490;49.072;8.804;2023-12-20T04:45:09;6.70;99.90
8910;DHT22;4490;49.072;8.804;2023-12-20T04:47:38;6.70;99.90
8910;DHT22;4490;49.072;8.804;2023-12-20T04:50:06;6.70;99.90
8910;DHT22;4490;49.072;8.804;2023-12-20T04:52:32;6.70;99.90
8910;DHT22;4490;49.072;8.804;2023-12-20T04:54:57;6.70;99.90
8910;DHT22;4490;49.072;8.804;2023-12-20T04:57:23;6.70;99.90
8910;DHT22;4490;49.072;8.804;2023-12-20T04:59:48;6.70;99.90
8910;DHT22;4490;49.072;8.804;2023-12-20T05:02:14;6.70;99.90
8910;DHT22;4490;49.072;8.804;2023-12-20T05:04:39;6.80;99.90
8910;DHT22;4490;49.072;8.804;2023-12-20T05:07:05;6.80;99.90
8910;DHT22;4490;49.072;8.804;2023-12-20T05:09:31;6.80;99.90
8910;DHT22;4490;49.072;8.804;2023-12-20T05:11:56;6.80;99.90
8910;DHT22;4490;49.072;8.804;2023-12-20T05:14:22;6.90;99.90
8910;DHT22;4490;49.072;8.804;2023-12-20T05:16:47;6.80;99.90
8910;DHT22;4490;49.072;8.804;2023-12-20T05:19:13;6.80;99.90
8910;DHT22;4490;49.072;8.804;2023-12-20T05:21:39;6.80;99.90
8910;DHT22;4490;49.072;8.804;2023-12-20T05:24:05;6.80;99.90
8910;DHT22;4490;49.072;8.804;2023-12-20T05:26:30;6.80;99.90
8910;DHT22;4490;49.072;8.804;2023-12-20T05:28:56;6.80;99.90
8910;DHT22;4490;49.072;8.804;2023-12-20T05:31:22;6.80;99.90
8910;DHT22;4490;49.072;8.804;2023-12-20T05:33:47;6.80;99.90
8910;DHT22;4490;49.072;8.804;2023-12-20T05:36:13;6.80;99.90
8910;DHT22;4490;49.072;8.804;2023-12-20T05:38:40;6.70;99.90
8910;DHT22;4490;49.072;8.804;2023-12-20T05:41:06;6.70;99.90
8910;DHT22;4490;49.072;8.804;2023-12-20T05:43:31;6.70;99.90
8910;DHT22;4490;49.072;8.804;2023-12-20T05:45:58;6.80;99.90
8910;DHT22;4490;49.072;8.804;2023-12-20T05:48:23;6.80;99.90
8910;DHT22;4490;49.072;8.804;2023-12-20T05:50:49;6.80;99.90
8910;DHT22;4490;49.072;8.804;2023-12-20T05:53:15;6.80;99.90
8910;DHT22;4490;49.072;8.804;2023-12-20T05:55:40;6.90;99.90
8910;DHT22;4490;49.072;8.804;2023-12-20T05:58:06;6.90;99.90
8910;DHT22;4490;49.072;8.804;2023-12-20T06:00:31;6.80;99.90
8910;DHT22;4490;49.072;8.804;2023-12-20T06:02:57;6.90;99.90
8910;DHT22;4490;49.072;8.804;2023-12-20T06:05:22;6.90;99.90
8910;DHT22;4490;49.072;8.804;2023-12-20T06:07:48;6.90;99.90
8910;DHT22;4490;49.072;8.804;2023-12-20T06:10:16;6.90;99.90
8910;DHT22;4490;49.072;8.804;2023-12-20T06:12:41;6.90;99.90
8910;DHT22;4490;49.072;8.804;2023-12-20T06:15:07;6.90;99.90
8910;DHT22;4490;49.072;8.804;2023-12-20T06:17:33;6.90;99.90
8910;DHT22;4490;49.072;8.804;2023-12-20T06:20:00;6.90;99.90
8910;DHT22;4490;49.072;8.804;2023-12-20T06:22:26;6.90;99.90
8910;DHT22;4490;49.072;8.804;2023-12-20T06:24:51;7.00;99.90
8910;DHT22;4490;49.072;8.804;2023-12-20T06:27:17;6.90;99.90
8910;DHT22;4490;49.072;8.804;2023-12-20T06:29:42;6.90;99.90
8910;DHT22;4490;49.072;8.804;2023-12-20T06:32:10;6.90;99.90
8910;DHT22;4490;49.072;8.804;2023-12-20T06:34:35;6.90;99.90
8910;DHT22;4490;49.072;8.804;2023-12-20T06:37:01;6.90;99.90
8910;DHT22;4490;49.072;8.804;2023-12-20T06:39:27;6.90;99.90
8910;DHT22;4490;49.072;8.804;2023-12-20T06:41:53;6.90;99.90
8910;DHT22;4490;49.072;8.804;2023-12-20T06:44:19;6.90;99.90
8910;DHT22;4490;49.072;8.804;2023-12-20T06:46:44;6.90;99.90
8910;DHT22;4490;49.072;8.804;2023-12-20T06:49:10;6.90;99.90
8910;DHT22;4490;49.072;8.804;2023-12-20T06:51:35;6.90;99.90
8910;DHT22;4490;49.072;8.804;2023-12-20T06:54:01;6.90;99.90
8910;DHT22;4490;49.072;8.804;2023-12-20T06:56:28;6.90;99.90
8910;DHT22;4490;49.072;8.804;2023-12-20T06:58:53;6.90;99.90
8910;DHT22;4490;49.072;8.804;2023-12-20T07:01:19;6.90;99.90
8910;DHT22;4490;49.072;8.804;2023-12-20T07:03:44;6.90;99.90
8910;DHT22;4490;49.072;8.804;2023-12-20T07:06:10;6.90;99.90
8910;DHT22;4490;49.072;8.804;2023-12-20T07:08:36;6.90;99.90
8910;DHT22;4490;49.072;8.804;2023-12-20T07:11:01;6.90;99.90
8910;DHT22;4490;49.072;8.804;2023-12-20T07:13:27;6.90;99.90
8910;DHT22;4490;49.072;8.804;2023-12-20T07:15:53;6.90;99.90
8910;DHT22;4490;49.072;8.804;2023-12-20T07:18:18;6.90;99.90
8910;DHT22;4490;49.072;8.804;2023-12-20T07:20:44;6.90;99.90
8910;DHT22;4490;49.072;8.804;2023-12-20T07:23:09;6.90;99.90
8910;DHT22;4490;49.072;8.804;2023-12-20T07:25:35;6.90;99.90
8910;DHT22;4490;49.072;8.804;2023-12-20T07:28:00;6.90;99.90
8910;DHT22;4490;49.072;8.804;2023-12-20T07:30:26;6.90;99.90
8910;DHT22;4490;49.072;8.804;2023-12-20T07:32:52;6.90;99.90
8910;DHT22;4490;49.072;8.804;2023-12-20T07:35:18;6.90;99.90
8910;DHT22;4490;49.072;8.804;2023-12-20T07:37:43;6.90;99.90
8910;DHT22;4490;49.072;8.804;2023-12-20T07:40:10;6.90;99.90
8910;DHT22;4490;49.072;8.804;2023-12-20T07:42:35;6.90;99.90
8910;DHT22;4490;49.072;8.804;2023-12-20T07:45:01;6.80;99.90
8910;DHT22;4490;49.072;8.804;2023-12-20T07:47:27;6.80;99.90
8910;DHT22;4490;49.072;8.804;2023-12-20T07:49:52;6.80;99.90
8910;DHT22;4490;49.072;8.804;2023-12-20T07:52:18;6.80;99.90
8910;DHT22;4490;49.072;8.804;2023-12-20T07:54:45;6.80;99.90
8910;DHT22;4490;49.072;8.804;2023-12-20T07:57:11;6.80;99.90
8910;DHT22;4490;49.072;8.804;2023-12-20T07:59:37;6.80;99.90
8910;DHT22;4490;49.072;8.804;2023-12-20T08:02:02;6.70;99.90
8910;DHT22;4490;49.072;8.804;2023-12-20T08:04:28;6.70;99.90
8910;DHT22;4490;49.072;8.804;2023-12-20T08:06:54;6.70;99.90
8910;DHT22;4490;49.072;8.804;2023-12-20T08:09:19;6.70;99.90
8910;DHT22;4490;49.072;8.804;2023-12-20T08:11:46;6.70;99.90
8910;DHT22;4490;49.072;8.804;2023-12-20T08:14:12;6.60;99.90
8910;DHT22;4490;49.072;8.804;2023-12-20T08:16:37;6.60;99.90
8910;DHT22;4490;49.072;8.804;2023-12-20T08:19:03;6.60;99.90
8910;DHT22;4490;49.072;8.804;2023-12-20T08:21:28;6.60;99.90
8910;DHT22;4490;49.072;8.804;2023-12-20T08:23:55;6.60;99.90
8910;DHT22;4490;49.072;8.804;2023-12-20T08:26:20;6.60;99.90
8910;DHT22;4490;49.072;8.804;2023-12-20T08:28:48;6.50;99.90
8910;DHT22;4490;49.072;8.804;2023-12-20T08:31:17;6.50;99.90
8910;DHT22;4490;49.072;8.804;2023-12-20T08:33:47;6.50;99.90
8910;DHT22;4490;49.072;8.804;2023-12-20T08:36:13;6.50;99.90
8910;DHT22;4490;49.072;8.804;2023-12-20T08:38:39;6.50;99.90
8910;DHT22;4490;49.072;8.804;2023-12-20T08:41:05;6.50;99.90
8910;DHT22;4490;49.072;8.804;2023-12-20T08:43:31;6.50;99.90
8910;DHT22;4490;49.072;8.804;2023-12-20T08:45:57;6.50;99.90
8910;DHT22;4490;49.072;8.804;2023-12-20T08:48:23;6.60;99.90
8910;DHT22;4490;49.072;8.804;2023-12-20T08:50:48;6.60;99.90
8910;DHT22;4490;49.072;8.804;2023-12-20T08:53:15;6.60;99.90
8910;DHT22;4490;49.072;8.804;2023-12-20T08:55:42;6.60;99.90
8910;DHT22;4490;49.072;8.804;2023-12-20T08:58:07;6.60;99.90
8910;DHT22;4490;49.072;8.804;2023-12-20T09:00:34;6.60;99.90
8910;DHT22;4490;49.072;8.804;2023-12-20T09:03:00;6.60;99.90
8910;DHT22;4490;49.072;8.804;2023-12-20T09:05:26;6.60;99.90
8910;DHT22;4490;49.072;8.804;2023-12-20T09:07:51;6.70;99.90
8910;DHT22;4490;49.072;8.804;2023-12-20T09:10:17;6.70;99.90
8910;DHT22;4490;49.072;8.804;2023-12-20T09:12:50;6.70;99.90
8910;DHT22;4490;49.072;8.804;2023-12-20T09:15:16;6.70;99.90
8910;DHT22;4490;49.072;8.804;2023-12-20T09:17:42;6.80;99.90
8910;DHT22;4490;49.072;8.804;2023-12-20T09:20:09;6.80;99.90
8910;DHT22;4490;49.072;8.804;2023-12-20T09:22:35;6.80;99.90
8910;DHT22;4490;49.072;8.804;2023-12-20T09:25:01;6.80;99.90
8910;DHT22;4490;49.072;8.804;2023-12-20T09:27:31;6.90;99.90
8910;DHT22;4490;49.072;8.804;2023-12-20T09:29:57;6.90;99.90
8910;DHT22;4490;49.072;8.804;2023-12-20T09:32:22;6.90;99.90
8910;DHT22;4490;49.072;8.804;2023-12-20T09:34:48;7.00;99.90
8910;DHT22;4490;49.072;8.804;2023-12-20T09:37:16;7.00;99.90
8910;DHT22;4490;49.072;8.804;2023-12-20T09:39:44;7.10;99.90
8910;DHT22;4490;49.072;8.804;2023-12-20T09:42:11;7.10;99.90
8910;DHT22;4490;49.072;8.804;2023-12-20T09:44:41;7.20;99.90
8910;DHT22;4490;49.072;8.804;2023-12-20T09:47:08;7.20;99.90
8910;DHT22;4490;49.072;8.804;2023-12-20T09:49:34;7.20;99.90
8910;DHT22;4490;49.072;8.804;2023-12-20T09:52:00;7.20;99.90
8910;DHT22;4490;49.072;8.804;2023-12-20T09:54:29;7.20;99.90
8910;DHT22;4490;49.072;8.804;2023-12-20T09:56:57;7.20;99.90
8910;DHT22;4490;49.072;8.804;2023-12-20T09:59:23;7.20;99.90
8910;DHT22;4490;49.072;8.804;2023-12-20T10:01:49;7.20;99.90
8910;DHT22;4490;49.072;8.804;2023-12-20T10:04:15;7.20;99.90
8910;DHT22;4490;49.072;8.804;2023-12-20T10:06:42;7.20;99.90
8910;DHT22;4490;49.072;8.804;2023-12-20T10:09:11;7.30;99.90
8910;DHT22;4490;49.072;8.804;2023-12-20T10:11:38;7.30;99.90
8910;DHT22;4490;49.072;8.804;2023-12-20T10:14:05;7.30;99.90
8910;DHT22;4490;49.072;8.804;2023-12-20T10:16:32;7.30;99.90
8910;DHT22;4490;49.072;8.804;2023-12-20T10:18:58;7.30;99.90
8910;DHT22;4490;49.072;8.804;2023-12-20T10:21:25;7.30;99.90
8910;DHT22;4490;49.072;8.804;2023-12-20T10:23:57;7.30;99.90
8910;DHT22;4490;49.072;8.804;2023-12-20T10:26:25;7.30;99.90
8910;DHT22;4490;49.072;8.804;2023-12-20T10:28:55;7.20;99.90
8910;DHT22;4490;49.072;8.804;2023-12-20T10:31:32;7.20;99.90
8910;DHT22;4490;49.072;8.804;2023-12-20T10:34:00;7.20;99.90
8910;DHT22;4490;49.072;8.804;2023-12-20T10:36:31;7.20;99.90
8910;DHT22;4490;49.072;8.804;2023-12-20T10:38:57;7.20;99.90
8910;DHT22;4490;49.072;8.804;2023-12-20T10:41:27;7.20;99.90
8910;DHT22;4490;49.072;8.804;2023-12-20T10:44:02;7.20;99.90
8910;DHT22;4490;49.072;8.804;2023-12-20T10:46:28;7.20;99.90
8910;DHT22;4490;49.072;8.804;2023-12-20T10:48:56;7.20;99.90
8910;DHT22;4490;49.072;8.804;2023-12-20T10:51:22;7.20;99.90
8910;DHT22;4490;49.072;8.804;2023-12-20T10:53:49;7.20;99.90
8910;DHT22;4490;49.072;8.804;2023-12-20T10:56:17;7.30;99.90
8910;DHT22;4490;49.072;8.804;2023-12-20T10:58:52;7.30;99.90
8910;DHT22;4490;49.072;8.804;2023-12-20T11:01:18;7.30;99.90
8910;DHT22;4490;49.072;8.804;2023-12-20T11:03:51;7.30;99.90
8910;DHT22;4490;49.072;8.804;2023-12-20T11:06:39;7.40;99.90
8910;DHT22;4490;49.072;8.804;2023-12-20T11:09:36;7.40;99.90
8910;DHT22;4490;49.072;8.804;2023-12-20T11:12:15;7.40;99.90
8910;DHT22;4490;49.072;8.804;2023-12-20T11:14:47;7.40;99.90
8910;DHT22;4490;49.072;8.804;2023-12-20T11:17:13;7.40;99.90
8910;DHT22;4490;49.072;8.804;2023-12-20T11:22:22;7.40;99.90
8910;DHT22;4490;49.072;8.804;2023-12-20T11:24:49;7.40;99.90
8910;DHT22;4490;49.072;8.804;2023-12-20T11:27:15;7.40;99.90
8910;DHT22;4490;49.072;8.804;2023-12-20T11:29:41;7.40;99.90
8910;DHT22;4490;49.072;8.804;2023-12-20T11:34:54;7.40;99.90
8910;DHT22;4490;49.072;8.804;2023-12-20T11:37:20;7.40;99.90
8910;DHT22;4490;49.072;8.804;2023-12-20T11:39:53;7.50;99.90
8910;DHT22;4490;49.072;8.804;2023-12-20T11:42:19;7.50;99.90
8910;DHT22;4490;49.072;8.804;2023-12-20T11:44:45;7.50;99.90
8910;DHT22;4490;49.072;8.804;2023-12-20T11:47:12;7.50;99.90
8910;DHT22;4490;49.072;8.804;2023-12-20T11:49:39;7.60;99.90
8910;DHT22;4490;49.072;8.804;2023-12-20T11:52:05;7.60;99.90
8910;DHT22;4490;49.072;8.804;2023-12-20T11:54:31;7.60;99.90
8910;DHT22;4490;49.072;8.804;2023-12-20T11:56:57;7.60;99.90
8910;DHT22;4490;49.072;8.804;2023-12-20T11:59:23;7.70;99.90
8910;DHT22;4490;49.072;8.804;2023-12-20T12:01:50;7.70;99.90
8910;DHT22;4490;49.072;8.804;2023-12-20T12:04:18;7.80;99.90
8910;DHT22;4490;49.072;8.804;2023-12-20T12:06:44;7.80;99.90
8910;DHT22;4490;49.072;8.804;2023-12-20T12:09:11;7.80;99.90
8910;DHT22;4490;49.072;8.804;2023-12-20T12:11:36;7.90;99.90
8910;DHT22;4490;49.072;8.804;2023-12-20T12:14:02;7.90;99.90
8910;DHT22;4490;49.072;8.804;2023-12-20T12:16:29;7.90;99.90
8910;DHT22;4490;49.072;8.804;2023-12-20T12:18:56;8.00;99.90
8910;DHT22;4490;49.072;8.804;2023-12-20T12:21:22;8.00;99.90
8910;DHT22;4490;49.072;8.804;2023-12-20T12:23:48;8.00;99.90
8910;DHT22;4490;49.072;8.804;2023-12-20T12:26:13;8.00;99.90
8910;DHT22;4490;49.072;8.804;2023-12-20T12:28:41;8.00;99.90
8910;DHT22;4490;49.072;8.804;2023-12-20T12:31:07;8.00;99.90
8910;DHT22;4490;49.072;8.804;2023-12-20T12:33:33;8.10;99.90
8910;DHT22;4490;49.072;8.804;2023-12-20T12:36:00;8.10;99.90
8910;DHT22;4490;49.072;8.804;2023-12-20T12:38:26;8.10;99.90
8910;DHT22;4490;49.072;8.804;2023-12-20T12:40:52;8.20;99.90
8910;DHT22;4490;49.072;8.804;2023-12-20T12:43:19;8.10;99.90
8910;DHT22;4490;49.072;8.804;2023-12-20T12:45:44;8.20;99.90
8910;DHT22;4490;49.072;8.804;2023-12-20T12:48:10;8.20;99.90
8910;DHT22;4490;49.072;8.804;2023-12-20T12:50:36;8.10;99.90
8910;DHT22;4490;49.072;8.804;2023-12-20T12:53:01;8.10;99.90
8910;DHT22;4490;49.072;8.804;2023-12-20T12:55:28;8.10;99.90
8910;DHT22;4490;49.072;8.804;2023-12-20T12:57:53;8.10;99.90
8910;DHT22;4490;49.072;8.804;2023-12-20T13:00:19;8.10;99.90
8910;DHT22;4490;49.072;8.804;2023-12-20T13:02:45;8.10;99.90
8910;DHT22;4490;49.072;8.804;2023-12-20T13:05:11;8.10;99.90
8910;DHT22;4490;49.072;8.804;2023-12-20T13:07:36;8.10;99.90
8910;DHT22;4490;49.072;8.804;2023-12-20T13:10:03;8.10;99.90
8910;DHT22;4490;49.072;8.804;2023-12-20T13:12:29;8.10;99.90
8910;DHT22;4490;49.072;8.804;2023-12-20T13:14:55;8.00;99.90
8910;DHT22;4490;49.072;8.804;2023-12-20T13:17:20;7.90;99.90
8910;DHT22;4490;49.072;8.804;2023-12-20T13:19:46;7.80;99.90
8910;DHT22;4490;49.072;8.804;2023-12-20T13:22:12;7.80;99.90
8910;DHT22;4490;49.072;8.804;2023-12-20T13:24:37;7.70;99.90
8910;DHT22;4490;49.072;8.804;2023-12-20T13:27:03;7.70;99.90
8910;DHT22;4490;49.072;8.804;2023-12-20T13:29:29;7.60;99.90
8910;DHT22;4490;49.072;8.804;2023-12-20T13:31:54;7.60;99.90
8910;DHT22;4490;49.072;8.804;2023-12-20T13:34:20;7.60;99.90
8910;DHT22;4490;49.072;8.804;2023-12-20T13:36:46;7.60;99.90
8910;DHT22;4490;49.072;8.804;2023-12-20T13:39:13;7.50;99.90
8910;DHT22;4490;49.072;8.804;2023-12-20T13:41:39;7.50;99.90
8910;DHT22;4490;49.072;8.804;2023-12-20T13:44:05;7.50;99.90
8910;DHT22;4490;49.072;8.804;2023-12-20T13:46:31;7.50;99.90
8910;DHT22;4490;49.072;8.804;2023-12-20T13:48:57;7.40;99.90
8910;DHT22;4490;49.072;8.804;2023-12-20T13:51:22;7.50;99.90
8910;DHT22;4490;49.072;8.804;2023-12-20T13:53:48;7.40;99.90
8910;DHT22;4490;49.072;8.804;2023-12-20T13:56:15;7.40;99.90
8910;DHT22;4490;49.072;8.804;2023-12-20T13:58:40;7.40;99.90
8910;DHT22;4490;49.072;8.804;2023-12-20T14:01:07;7.40;99.90
8910;DHT22;4490;49.072;8.804;2023-12-20T14:03:34;7.30;99.90
8910;DHT22;4490;49.072;8.804;2023-12-20T14:06:00;7.30;99.90
8910;DHT22;4490;49.072;8.804;2023-12-20T14:08:27;7.30;99.90
8910;DHT22;4490;49.072;8.804;2023-12-20T14:10:53;7.20;99.90
8910;DHT22;4490;49.072;8.804;2023-12-20T14:13:18;7.30;99.90
8910;DHT22;4490;49.072;8.804;2023-12-20T14:15:44;7.30;99.90
8910;DHT22;4490;49.072;8.804;2023-12-20T14:18:10;7.30;99.90
8910;DHT22;4490;49.072;8.804;2023-12-20T14:20:38;7.30;99.90
8910;DHT22;4490;49.072;8.804;2023-12-20T14:23:05;7.30;99.90
8910;DHT22;4490;49.072;8.804;2023-12-20T14:25:31;7.30;99.90
8910;DHT22;4490;49.072;8.804;2023-12-20T14:27:59;7.20;99.90
8910;DHT22;4490;49.072;8.804;2023-12-20T14:30:26;7.20;99.90
8910;DHT22;4490;49.072;8.804;2023-12-20T14:32:53;7.20;99.90
8910;DHT22;4490;49.072;8.804;2023-12-20T14:35:19;7.20;99.90
8910;DHT22;4490;49.072;8.804;2023-12-20T14:37:45;7.20;99.90
8910;DHT22;4490;49.072;8.804;2023-12-20T14:40:12;7.10;99.90
8910;DHT22;4490;49.072;8.804;2023-12-20T14:42:42;7.10;99.90
8910;DHT22;4490;49.072;8.804;2023-12-20T14:45:09;7.10;99.90
8910;DHT22;4490;49.072;8.804;2023-12-20T14:47:35;7.00;99.90
8910;DHT22;4490;49.072;8.804;2023-12-20T14:50:04;7.00;99.90
8910;DHT22;4490;49.072;8.804;2023-12-20T14:52:31;7.00;99.90
8910;DHT22;4490;49.072;8.804;2023-12-20T14:54:57;7.00;99.90
8910;DHT22;4490;49.072;8.804;2023-12-20T14:57:24;7.00;99.90
8910;DHT22;4490;49.072;8.804;2023-12-20T14:59:49;7.00;99.90
8910;DHT22;4490;49.072;8.804;2023-12-20T15:02:15;7.00;99.90
8910;DHT22;4490;49.072;8.804;2023-12-20T15:04:42;7.00;99.90
8910;DHT22;4490;49.072;8.804;2023-12-20T15:07:07;7.00;99.90
8910;DHT22;4490;49.072;8.804;2023-12-20T15:09:33;7.00;99.90
8910;DHT22;4490;49.072;8.804;2023-12-20T15:11:58;7.00;99.90
8910;DHT22;4490;49.072;8.804;2023-12-20T15:14:24;7.00;99.90
8910;DHT22;4490;49.072;8.804;2023-12-20T15:16:49;6.90;99.90
8910;DHT22;4490;49.072;8.804;2023-12-20T15:19:15;6.80;99.90
8910;DHT22;4490;49.072;8.804;2023-12-20T15:21:41;6.80;99.90
8910;DHT22;4490;49.072;8.804;2023-12-20T15:24:11;6.70;99.90
8910;DHT22;4490;49.072;8.804;2023-12-20T15:26:42;6.70;99.90
8910;DHT22;4490;49.072;8.804;2023-12-20T15:29:09;6.60;99.90
8910;DHT22;4490;49.072;8.804;2023-12-20T15:31:46;6.70;99.90
8910;DHT22;4490;49.072;8.804;2023-12-20T15:34:12;6.60;99.90
8910;DHT22;4490;49.072;8.804;2023-12-20T15:36:38;6.60;99.90
8910;DHT22;4490;49.072;8.804;2023-12-20T15:39:04;6.60;99.90
8910;DHT22;4490;49.072;8.804;2023-12-20T15:41:30;6.60;99.90
8910;DHT22;4490;49.072;8.804;2023-12-20T15:43:56;6.50;99.90
8910;DHT22;4490;49.072;8.804;2023-12-20T15:46:22;6.50;99.90
8910;DHT22;4490;49.072;8.804;2023-12-20T15:48:47;6.50;99.90
8910;DHT22;4490;49.072;8.804;2023-12-20T15:51:14;6.50;99.90
8910;DHT22;4490;49.072;8.804;2023-12-20T15:53:40;6.50;99.90
8910;DHT22;4490;49.072;8.804;2023-12-20T15:56:06;6.50;99.90
8910;DHT22;4490;49.072;8.804;2023-12-20T15:58:32;6.50;99.90
8910;DHT22;4490;49.072;8.804;2023-12-20T16:00:58;6.50;99.90
8910;DHT22;4490;49.072;8.804;2023-12-20T16:03:25;6.50;99.90
8910;DHT22;4490;49.072;8.804;2023-12-20T16:05:50;6.50;99.90
8910;DHT22;4490;49.072;8.804;2023-12-20T16:08:16;6.60;99.90
8910;DHT22;4490;49.072;8.804;2023-12-20T16:10:42;6.60;99.90
8910;DHT22;4490;49.072;8.804;2023-12-20T16:13:08;6.60;99.90
8910;DHT22;4490;49.072;8.804;2023-12-20T16:15:34;6.60;99.90